createdAt,value
2023-04-18T00:01:21.041Z,79.42
2023-04-18T00:03:45.273Z,79.62
2023-04-18T00:06:09.748Z,79.70
2023-04-18T00:08:33.681Z,79.73
2023-04-18T00:10:57.259Z,79.71
2023-04-18T00:13:20.950Z,79.80
2023-04-18T00:15:45.607Z,79.91
2023-04-18T00:18:09.861Z,80.02
2023-04-18T00:20:33.527Z,79.86
2023-04-18T00:23:00.097Z,79.90
2023-04-18T00:25:43.735Z,79.90
2023-04-18T00:28:10.060Z,79.95
2023-04-18T00:30:33.599Z,79.86
2023-04-18T00:32:57.213Z,79.84
2023-04-18T00:35:21.316Z,79.85
2023-04-18T00:37:44.820Z,79.97
2023-04-18T00:40:10.213Z,79.94
2023-04-18T00:42:36.526Z,79.95
2023-04-18T00:45:03.781Z,79.87
2023-04-18T00:47:27.302Z,79.95
2023-04-18T00:49:54.396Z,80.04
2023-04-18T00:52:18.888Z,80.11
2023-04-18T00:54:46.711Z,80.20
2023-04-18T00:57:10.609Z,80.15
2023-04-18T00:59:35.041Z,80.30
2023-04-18T01:02:08.561Z,80.36
2023-04-18T01:04:43.003Z,80.29
2023-04-18T01:07:07.774Z,80.29
2023-04-18T01:09:31.522Z,80.47
2023-04-18T01:11:55.625Z,80.36
2023-04-18T01:14:19.756Z,80.55
2023-04-18T01:16:43.453Z,80.50
2023-04-18T01:19:10.771Z,80.56
2023-04-18T01:21:35.522Z,80.54
2023-04-18T01:24:19.370Z,80.65
2023-04-18T01:26:47.510Z,80.64
2023-04-18T01:29:15.826Z,80.77
2023-04-18T01:31:40.770Z,80.88
2023-04-18T01:34:24.892Z,80.85
2023-04-18T01:36:50.733Z,80.82
2023-04-18T01:39:14.879Z,80.92
2023-04-18T01:41:38.601Z,80.97
2023-04-18T01:44:22.537Z,80.97
2023-04-18T01:46:46.016Z,81.06
2023-04-18T01:49:11.545Z,80.99
2023-04-18T01:51:55.602Z,81.09
2023-04-18T01:54:20.992Z,81.14
2023-04-18T01:56:44.449Z,81.20
2023-04-18T01:59:08.102Z,81.15
2023-04-18T02:01:52.066Z,81.29
2023-04-18T02:04:16.100Z,81.25
2023-04-18T02:06:48.707Z,81.33
2023-04-18T02:09:14.622Z,81.32
2023-04-18T02:11:41.130Z,81.34
2023-04-18T02:14:07.653Z,81.46
2023-04-18T02:16:34.359Z,81.37
2023-04-18T02:19:18.222Z,81.38
2023-04-18T02:22:02.086Z,81.49
2023-04-18T02:24:34.455Z,81.49
2023-04-18T02:27:00.313Z,81.58
2023-04-18T02:29:23.850Z,81.54
2023-04-18T02:31:47.615Z,81.67
2023-04-18T02:34:12.034Z,81.57
2023-04-18T02:36:36.843Z,81.75
2023-04-18T02:39:00.284Z,81.82
2023-04-18T02:41:23.934Z,81.74
2023-04-18T02:43:47.572Z,81.66
2023-04-18T02:46:12.125Z,81.63
2023-04-18T02:48:35.768Z,81.80
2023-04-18T02:51:03.402Z,81.87
2023-04-18T02:53:47.607Z,81.85
2023-04-18T02:56:12.372Z,81.97
2023-04-18T02:58:59.056Z,82.15
2023-04-18T03:01:40.808Z,82.19
2023-04-18T03:04:07.698Z,82.32
2023-04-18T03:06:35.222Z,82.15
2023-04-18T03:08:58.869Z,82.29
2023-04-18T03:11:25.496Z,82.25
2023-04-18T03:13:53.114Z,82.45
2023-04-18T03:16:17.353Z,82.52
2023-04-18T03:18:40.914Z,82.39
2023-04-18T03:21:04.896Z,82.60
2023-04-18T03:23:48.873Z,82.60
2023-04-18T03:26:14.218Z,82.69
2023-04-18T03:28:57.986Z,82.69
2023-04-18T03:31:42.284Z,82.68
2023-04-18T03:34:06.280Z,82.84
2023-04-18T03:36:30.748Z,82.89
2023-04-18T03:38:54.956Z,82.81
2023-04-18T03:41:18.822Z,82.79
2023-04-18T03:43:44.861Z,82.63
2023-04-18T03:46:11.061Z,82.72
2023-04-18T03:48:36.646Z,82.72
2023-04-18T03:51:20.254Z,82.71
2023-04-18T03:53:56.520Z,82.54
2023-04-18T03:56:20.111Z,82.48
2023-04-18T03:59:04.005Z,82.62
2023-04-18T04:01:31.397Z,82.56
2023-04-18T04:04:03.028Z,82.70
2023-04-18T04:06:47.571Z,82.69
2023-04-18T04:09:13.964Z,82.68
2023-04-18T04:11:40.636Z,82.63
2023-04-18T04:14:16.997Z,82.55
2023-04-18T04:16:54.391Z,82.53
2023-04-18T04:19:30.834Z,82.59
2023-04-18T04:22:14.437Z,82.39
2023-04-18T04:24:39.017Z,82.30
2023-04-18T04:27:03.321Z,82.21
2023-04-18T04:29:48.730Z,82.13
2023-04-18T04:32:13.118Z,81.97
2023-04-18T04:34:40.669Z,81.73
2023-04-18T04:37:18.044Z,81.84
2023-04-18T04:40:02.186Z,81.76
2023-04-18T04:42:45.336Z,81.68
2023-04-18T04:45:13.421Z,81.58
2023-04-18T04:47:36.979Z,81.50
2023-04-18T04:50:00.607Z,81.43
2023-04-18T04:52:24.133Z,81.33
2023-04-18T04:54:47.774Z,81.34
2023-04-18T04:57:12.354Z,81.21
2023-04-18T04:59:36.849Z,81.16
2023-04-18T05:02:02.238Z,81.06
2023-04-18T05:04:26.992Z,81.03
2023-04-18T05:06:50.586Z,80.80
2023-04-18T05:09:14.047Z,80.60
2023-04-18T05:11:37.735Z,80.46
2023-04-18T05:14:01.223Z,80.36
2023-04-18T05:16:24.907Z,80.35
2023-04-18T05:18:48.641Z,80.28
2023-04-18T05:21:12.154Z,80.28
2023-04-18T05:23:36.419Z,80.13
2023-04-18T05:26:00.201Z,79.98
2023-04-18T05:28:26.325Z,79.79
2023-04-18T05:31:00.485Z,79.53
2023-04-18T05:33:24.421Z,79.42
2023-04-18T05:35:47.894Z,79.18
2023-04-18T05:38:11.429Z,78.98
2023-04-18T05:40:35.221Z,78.51
2023-04-18T05:42:58.692Z,77.88
2023-04-18T05:45:22.164Z,77.37
2023-04-18T05:47:46.124Z,77.20
2023-04-18T05:50:10.693Z,76.89
2023-04-18T05:52:34.087Z,76.36
2023-04-18T05:54:57.982Z,75.96
2023-04-18T05:57:21.381Z,75.07
2023-04-18T05:59:44.838Z,74.56
2023-04-18T06:02:12.850Z,74.37
2023-04-18T06:04:47.873Z,74.00
2023-04-18T06:07:11.765Z,73.80
2023-04-18T06:09:35.517Z,73.55
2023-04-18T06:11:59.262Z,73.38
2023-04-18T06:14:43.057Z,73.11
2023-04-18T06:17:09.606Z,73.07
2023-04-18T06:19:33.031Z,72.52
2023-04-18T06:21:56.823Z,72.26
2023-04-18T06:24:20.480Z,72.09
2023-04-18T06:26:51.570Z,71.88
2023-04-18T06:29:17.309Z,72.05
2023-04-18T06:31:44.714Z,72.57
2023-04-18T06:34:08.278Z,72.00
2023-04-18T06:36:32.038Z,70.70
2023-04-18T06:38:55.489Z,69.71
2023-04-18T06:41:18.887Z,68.27
2023-04-18T06:43:52.041Z,67.22
2023-04-18T06:46:23.058Z,67.10
2023-04-18T06:48:46.709Z,67.13
2023-04-18T06:51:10.218Z,66.96
2023-04-18T06:53:33.712Z,66.88
2023-04-18T06:56:07.048Z,67.03
2023-04-18T06:58:30.513Z,66.96
2023-04-18T07:00:53.973Z,67.07
2023-04-18T07:03:17.958Z,67.39
2023-04-18T07:05:41.601Z,67.81
2023-04-18T07:08:05.094Z,67.85
2023-04-18T07:10:31.358Z,68.08
2023-04-18T07:12:54.800Z,68.40
2023-04-18T07:15:18.419Z,68.59
2023-04-18T07:17:42.392Z,68.98
2023-04-18T07:20:08.410Z,69.06
2023-04-18T07:22:31.787Z,69.17
2023-04-18T07:24:55.320Z,69.52
2023-04-18T07:27:18.692Z,69.78
2023-04-18T07:29:42.212Z,69.87
2023-04-18T07:32:08.122Z,69.81
2023-04-18T07:34:33.180Z,69.84
2023-04-18T07:36:57.311Z,69.91
2023-04-18T07:39:20.939Z,69.44
2023-04-18T07:41:44.424Z,69.26
2023-04-18T07:44:07.856Z,69.13
2023-04-18T07:46:33.399Z,68.58
2023-04-18T07:48:56.853Z,68.10
2023-04-18T07:51:20.259Z,67.99
2023-04-18T07:53:44.092Z,67.78
2023-04-18T07:56:07.948Z,67.80
2023-04-18T07:58:31.751Z,67.40
2023-04-18T08:00:55.555Z,66.88
2023-04-18T08:03:19.300Z,66.12
2023-04-18T08:05:43.571Z,64.83
2023-04-18T08:08:08.054Z,64.05
2023-04-18T08:10:31.740Z,63.19
2023-04-18T08:12:55.096Z,62.46
2023-04-18T08:15:18.723Z,61.99
2023-04-18T08:17:44.437Z,60.70
2023-04-18T08:20:08.991Z,59.68
2023-04-18T08:22:32.800Z,58.94
2023-04-18T08:25:04.395Z,57.50
2023-04-18T08:27:30.019Z,55.91
2023-04-18T08:29:54.138Z,53.96
2023-04-18T08:32:17.477Z,52.88
2023-04-18T08:34:41.305Z,50.30
2023-04-18T08:37:05.250Z,49.68
2023-04-18T08:39:28.590Z,48.09
2023-04-18T08:41:58.926Z,46.32
2023-04-18T08:44:23.279Z,43.90
2023-04-18T08:46:46.669Z,43.97
2023-04-18T08:49:11.878Z,43.65
2023-04-18T08:51:36.953Z,42.45
2023-04-18T08:54:03.831Z,41.87
2023-04-18T08:56:27.959Z,40.64
2023-04-18T08:58:51.653Z,38.89
2023-04-18T09:01:17.118Z,38.42
2023-04-18T09:03:41.692Z,37.77
2023-04-18T09:06:11.835Z,37.22
2023-04-18T09:08:35.432Z,37.35
2023-04-18T09:11:25.366Z,37.47
2023-04-18T09:13:49.670Z,38.27
2023-04-18T09:16:13.736Z,38.85
2023-04-18T09:18:37.909Z,38.14
2023-04-18T09:21:18.736Z,37.94
2023-04-18T09:23:42.391Z,37.97
2023-04-18T09:26:05.832Z,37.66
2023-04-18T09:28:30.457Z,37.17
2023-04-18T09:30:55.465Z,37.15
2023-04-18T09:33:27.545Z,37.09
2023-04-18T09:35:51.306Z,37.66
2023-04-18T09:38:14.943Z,37.77
2023-04-18T09:40:38.432Z,37.95
2023-04-18T09:43:17.063Z,37.16
2023-04-18T09:45:40.593Z,36.42
2023-04-18T09:48:04.430Z,36.76
2023-04-18T09:50:28.073Z,37.28
2023-04-18T09:52:52.202Z,36.77
2023-04-18T09:55:17.408Z,36.33
2023-04-18T09:57:43.683Z,37.12
2023-04-18T10:00:16.139Z,36.39
2023-04-18T10:02:47.913Z,35.61
2023-04-18T10:05:13.528Z,35.92
2023-04-18T10:07:37.547Z,36.07
2023-04-18T10:10:01.010Z,36.01
2023-04-18T10:12:25.233Z,36.72
2023-04-18T10:14:49.075Z,37.29
2023-04-18T10:17:13.863Z,37.49
2023-04-18T10:19:40.543Z,38.32
2023-04-18T10:22:03.846Z,38.85
2023-04-18T10:24:52.258Z,39.46
2023-04-18T10:27:16.276Z,39.98
2023-04-18T10:29:56.834Z,40.87
2023-04-18T10:32:23.023Z,41.72
2023-04-18T10:34:47.065Z,42.46
2023-04-18T10:37:12.556Z,42.39
2023-04-18T10:39:49.891Z,42.96
2023-04-18T10:42:13.685Z,43.53
2023-04-18T10:44:37.063Z,44.05
2023-04-18T10:47:22.307Z,44.50
2023-04-18T10:49:54.640Z,44.51
2023-04-18T10:52:18.521Z,44.93
2023-04-18T10:54:50.703Z,44.91
2023-04-18T10:57:14.770Z,44.51
2023-04-18T10:59:39.472Z,44.37
2023-04-18T11:02:13.896Z,44.54
2023-04-18T11:04:37.619Z,44.62
2023-04-18T11:07:01.963Z,45.14
2023-04-18T11:09:25.920Z,45.09
2023-04-18T11:12:03.374Z,45.38
2023-04-18T11:14:26.889Z,45.86
2023-04-18T11:16:50.290Z,46.16
2023-04-18T11:19:21.239Z,46.51
2023-04-18T11:21:44.944Z,46.81
2023-04-18T11:24:08.417Z,46.91
2023-04-18T11:26:31.979Z,46.92
2023-04-18T11:28:57.620Z,47.27
2023-04-18T11:31:23.987Z,47.19
2023-04-18T11:33:46.962Z,47.11
2023-04-18T11:36:11.603Z,47.22
2023-04-18T11:38:35.655Z,47.03
2023-04-18T11:41:02.050Z,47.05
2023-04-18T11:43:26.085Z,46.75
2023-04-18T11:45:53.697Z,46.57
2023-04-18T11:48:17.177Z,46.50
2023-04-18T11:50:40.931Z,46.22
2023-04-18T11:53:04.307Z,46.47
2023-04-18T11:55:27.793Z,46.34
2023-04-18T11:57:52.782Z,46.71
2023-04-18T12:00:18.931Z,46.62
2023-04-18T12:02:43.738Z,46.74
2023-04-18T12:05:09.573Z,47.04
2023-04-18T12:07:38.272Z,47.13
2023-04-18T12:10:02.174Z,47.37
2023-04-18T12:12:25.866Z,47.58
2023-04-18T12:14:57.016Z,47.95
2023-04-18T12:17:20.528Z,47.69
2023-04-18T12:19:45.047Z,47.82
2023-04-18T12:22:09.266Z,47.80
2023-04-18T12:24:33.111Z,47.64
2023-04-18T12:26:57.282Z,47.73
2023-04-18T12:29:20.683Z,47.99
2023-04-18T12:31:44.054Z,48.11
2023-04-18T12:34:07.728Z,48.23
2023-04-18T12:36:31.165Z,47.93
2023-04-18T12:38:54.584Z,48.08
2023-04-18T12:41:18.224Z,48.05
2023-04-18T12:43:41.636Z,48.24
2023-04-18T12:46:05.305Z,47.99
2023-04-18T12:48:28.886Z,47.76
2023-04-18T12:50:52.313Z,47.73
2023-04-18T12:53:15.620Z,47.59
2023-04-18T12:55:39.370Z,47.60
2023-04-18T12:58:03.236Z,47.24
2023-04-18T13:00:29.383Z,47.42
2023-04-18T13:02:53.873Z,47.49
2023-04-18T13:05:20.474Z,46.91
2023-04-18T13:07:44.249Z,46.77
2023-04-18T13:10:10.895Z,46.77
2023-04-18T13:12:34.420Z,46.59
2023-04-18T13:14:58.034Z,46.90
2023-04-18T13:17:21.729Z,46.59
2023-04-18T13:19:45.294Z,46.59
2023-04-18T13:22:08.916Z,46.75
2023-04-18T13:24:32.629Z,46.69
2023-04-18T13:26:56.550Z,46.77
2023-04-18T13:29:20.130Z,46.48
2023-04-18T13:31:43.949Z,46.41
2023-04-18T13:34:07.414Z,46.45
2023-04-18T13:36:34.190Z,46.70
2023-04-18T13:38:58.364Z,47.07
2023-04-18T13:41:43.047Z,47.26
2023-04-18T13:44:07.728Z,47.18
2023-04-18T13:46:31.224Z,46.99
2023-04-18T13:48:54.629Z,46.51
2023-04-18T13:51:18.350Z,46.50
2023-04-18T13:53:41.771Z,46.33
2023-04-18T13:56:06.204Z,46.11
2023-04-18T13:58:29.925Z,46.05
2023-04-18T14:00:53.797Z,46.00
2023-04-18T14:03:17.347Z,46.03
2023-04-18T14:05:40.894Z,45.97
2023-04-18T14:08:04.716Z,45.92
2023-04-18T14:10:28.282Z,46.19
2023-04-18T14:12:51.918Z,45.91
2023-04-18T14:18:53.200Z,46.00
2023-04-18T14:21:16.595Z,46.02
2023-04-18T14:23:40.045Z,45.80
2023-04-18T14:26:04.705Z,45.64
2023-04-18T14:28:28.259Z,45.52
2023-04-18T14:30:51.929Z,45.57
2023-04-18T14:33:15.516Z,45.23
2023-04-18T14:35:39.276Z,45.24
2023-04-18T14:38:02.597Z,45.01
2023-04-18T14:40:26.804Z,44.76
2023-04-18T14:42:50.359Z,44.82
2023-04-18T14:45:15.554Z,44.95
2023-04-18T14:47:39.181Z,44.80
2023-04-18T14:50:02.659Z,44.78
2023-04-18T14:52:26.060Z,45.10
2023-04-18T14:54:49.815Z,45.05
2023-04-18T14:57:13.434Z,46.05
2023-04-18T14:59:36.793Z,45.54
2023-04-18T15:02:02.563Z,45.50
2023-04-18T15:04:26.620Z,45.09
2023-04-18T15:06:50.250Z,45.17
2023-04-18T15:09:15.324Z,45.18
2023-04-18T15:11:38.668Z,45.20
2023-04-18T15:14:02.050Z,45.37
2023-04-18T15:16:25.828Z,45.17
2023-04-18T15:18:49.262Z,45.16
2023-04-18T15:21:12.923Z,45.09
2023-04-18T15:23:36.540Z,45.16
2023-04-18T15:25:59.908Z,45.16
2023-04-18T15:28:23.457Z,44.61
2023-04-18T15:30:47.517Z,44.44
2023-04-18T15:33:12.159Z,44.34
2023-04-18T15:35:35.706Z,44.19
2023-04-18T15:37:59.548Z,44.17
2023-04-18T15:40:22.970Z,44.49
2023-04-18T15:42:48.704Z,44.51
2023-04-18T15:45:13.068Z,44.64
2023-04-18T15:47:36.603Z,44.78
2023-04-18T15:50:00.158Z,45.13
2023-04-18T15:52:23.755Z,45.24
2023-04-18T15:54:47.178Z,45.42
2023-04-18T15:57:11.020Z,45.49
2023-04-18T15:59:35.371Z,45.52
2023-04-18T16:01:58.919Z,45.57
2023-04-18T16:04:23.444Z,45.73
2023-04-18T16:06:47.048Z,45.82
2023-04-18T16:09:10.406Z,45.91
2023-04-18T16:11:33.818Z,46.02
2023-04-18T16:13:57.304Z,46.26
2023-04-18T16:16:20.714Z,46.26
2023-04-18T16:18:44.171Z,46.33
2023-04-18T16:21:08.036Z,46.38
2023-04-18T16:23:32.180Z,46.45
2023-04-18T16:25:55.516Z,46.52
2023-04-18T16:28:19.114Z,46.58
2023-04-18T16:30:43.207Z,46.69
2023-04-18T16:33:06.653Z,46.76
2023-04-18T16:35:30.372Z,46.88
2023-04-18T16:37:53.752Z,47.00
2023-04-18T16:40:17.112Z,46.95
2023-04-18T16:42:41.149Z,47.18
2023-04-18T16:45:05.720Z,47.30
2023-04-18T16:47:29.748Z,47.26
2023-04-18T16:49:53.535Z,47.55
2023-04-18T16:52:17.088Z,47.54
2023-04-18T16:54:41.351Z,47.63
2023-04-18T16:57:05.214Z,47.71
2023-04-18T16:59:28.593Z,47.85
2023-04-18T17:01:52.081Z,47.81
2023-04-18T17:04:15.846Z,48.00
2023-04-18T17:06:41.484Z,48.20
2023-04-18T17:09:05.509Z,48.33
2023-04-18T17:11:29.555Z,48.35
2023-04-18T17:13:53.033Z,48.45
2023-04-18T17:16:16.854Z,48.66
2023-04-18T17:18:41.040Z,48.70
2023-04-18T17:21:04.654Z,48.72
2023-04-18T17:23:28.048Z,48.81
2023-04-18T17:25:51.801Z,48.98
2023-04-18T17:28:15.707Z,49.06
2023-04-18T17:30:41.280Z,49.18
2023-04-18T17:33:05.297Z,49.18
2023-04-18T17:35:29.033Z,49.32
2023-04-18T17:37:52.601Z,49.37
2023-04-18T17:40:16.472Z,49.40
2023-04-18T17:42:39.934Z,49.61
2023-04-18T17:45:03.582Z,49.63
2023-04-18T17:47:27.116Z,49.72
2023-04-18T17:49:50.565Z,49.81
2023-04-18T17:52:14.147Z,49.86
2023-04-18T17:54:37.589Z,50.01
2023-04-18T17:57:01.805Z,49.96
2023-04-18T17:59:28.128Z,50.14
2023-04-18T18:01:51.780Z,50.20
2023-04-18T18:04:15.734Z,50.13
2023-04-18T18:06:39.287Z,50.14
2023-04-18T18:09:03.274Z,50.12
2023-04-18T18:11:27.002Z,50.17
2023-04-18T18:13:53.932Z,50.20
2023-04-18T18:16:17.512Z,50.16
2023-04-18T18:18:40.890Z,50.23
2023-04-18T18:21:04.498Z,50.30
2023-04-18T18:23:28.849Z,50.32
2023-04-18T18:25:52.296Z,50.11
2023-04-18T18:28:15.718Z,50.08
2023-04-18T18:30:39.617Z,50.14
2023-04-18T18:33:03.110Z,50.15
2023-04-18T18:35:26.866Z,50.10
2023-04-18T18:37:50.461Z,50.16
2023-04-18T18:40:14.325Z,50.19
2023-04-18T18:42:38.429Z,50.16
2023-04-18T18:45:03.169Z,50.11
2023-04-18T18:47:26.687Z,50.22
2023-04-18T18:49:50.224Z,50.35
2023-04-18T18:52:13.946Z,50.36
2023-04-18T18:54:37.393Z,50.30
2023-04-18T18:57:02.118Z,50.21
2023-04-18T18:59:25.793Z,50.29
2023-04-18T19:01:49.181Z,50.38
2023-04-18T19:04:12.694Z,50.43
2023-04-18T19:06:36.373Z,50.48
2023-04-18T19:08:59.818Z,50.51
2023-04-18T19:11:23.391Z,50.56
2023-04-18T19:13:47.023Z,50.58
2023-04-18T19:16:10.450Z,50.63
2023-04-18T19:18:34.052Z,50.66
2023-04-18T19:20:57.721Z,50.64
2023-04-18T19:23:23.142Z,50.68
2023-04-18T19:25:46.962Z,50.76
2023-04-18T19:28:10.439Z,50.69
2023-04-18T19:30:33.880Z,50.81
2023-04-18T19:32:57.396Z,51.00
2023-04-18T19:35:21.376Z,51.13
2023-04-18T19:37:44.790Z,51.15
2023-04-18T19:40:10.140Z,51.15
2023-04-18T19:42:33.778Z,51.33
2023-04-18T19:44:58.384Z,51.31
2023-04-18T19:47:21.811Z,51.28
2023-04-18T19:49:45.350Z,51.23
2023-04-18T19:52:08.727Z,51.28
2023-04-18T19:54:32.950Z,51.31
2023-04-18T19:56:58.106Z,51.38
2023-04-18T19:59:21.953Z,51.60
2023-04-18T20:01:45.411Z,51.66
2023-04-18T20:04:09.260Z,51.73
2023-04-18T20:06:33.032Z,51.77
2023-04-18T20:08:56.642Z,51.91
2023-04-18T20:11:21.502Z,52.04
2023-04-18T20:13:45.264Z,52.08
2023-04-18T20:16:10.307Z,52.32
2023-04-18T20:18:35.157Z,52.54
2023-04-18T20:20:58.547Z,52.62
2023-04-18T20:23:21.954Z,52.84
2023-04-18T20:25:45.520Z,53.08
2023-04-18T20:28:08.903Z,53.15
2023-04-18T20:30:34.112Z,53.35
2023-04-18T20:32:57.808Z,53.54
2023-04-18T20:35:21.687Z,53.82
2023-04-18T20:37:45.158Z,54.07
2023-04-18T20:40:10.652Z,54.30
2023-04-18T20:42:34.152Z,54.43
2023-04-18T20:44:58.146Z,54.76
2023-04-18T20:47:21.822Z,54.95
2023-04-18T20:49:45.607Z,55.23
2023-04-18T20:52:09.217Z,55.32
2023-04-18T20:54:32.710Z,55.50
2023-04-18T20:56:56.094Z,55.72
2023-04-18T20:59:19.612Z,55.68
2023-04-18T21:01:43.370Z,55.87
2023-04-18T21:04:06.919Z,56.00
2023-04-18T21:06:33.556Z,56.20
2023-04-18T21:08:57.365Z,56.20
2023-04-18T21:11:20.716Z,56.59
2023-04-18T21:13:44.310Z,56.67
2023-04-18T21:16:10.284Z,56.87
2023-04-18T21:18:37.094Z,57.02
2023-04-18T21:21:00.576Z,57.28
2023-04-18T21:23:26.505Z,57.39
2023-04-18T21:25:49.936Z,57.54
2023-04-18T21:28:13.355Z,57.76
2023-04-18T21:30:37.296Z,57.93
2023-04-18T21:33:00.775Z,58.01
2023-04-18T21:35:24.887Z,58.07
2023-04-18T21:37:48.742Z,58.11
2023-04-18T21:40:12.851Z,58.28
2023-04-18T21:42:36.329Z,58.22
2023-04-18T21:45:00.559Z,58.30
2023-04-18T21:47:25.186Z,58.23
2023-04-18T21:49:50.032Z,58.45
2023-04-18T21:52:34.054Z,58.39
2023-04-18T21:55:18.084Z,58.47
2023-04-18T21:58:02.051Z,58.47
2023-04-18T22:00:28.013Z,58.55
2023-04-18T22:02:51.464Z,58.57
2023-04-18T22:05:16.003Z,58.65
2023-04-18T22:07:54.435Z,58.83
2023-04-18T22:10:22.123Z,58.64
2023-04-18T22:12:50.688Z,58.76
2023-04-18T22:15:14.368Z,58.86
2023-04-18T22:17:49.665Z,58.86
2023-04-18T22:20:27.466Z,58.82
2023-04-18T22:22:51.000Z,58.89
2023-04-18T22:25:14.366Z,59.02
2023-04-18T22:27:38.129Z,59.05
2023-04-18T22:30:13.280Z,59.23
2023-04-18T22:32:36.958Z,59.38
2023-04-18T22:35:01.103Z,59.64
2023-04-18T22:37:24.957Z,59.82
2023-04-18T22:39:48.295Z,60.18
2023-04-18T22:42:11.574Z,60.19
2023-04-18T22:44:37.949Z,60.38
2023-04-18T22:47:04.090Z,60.49
2023-04-18T22:49:29.962Z,60.62
2023-04-18T22:51:53.866Z,60.69
2023-04-18T22:54:17.459Z,60.74
2023-04-18T22:56:41.142Z,60.90
2023-04-18T22:59:25.122Z,60.76
2023-04-18T23:01:48.648Z,61.08
2023-04-18T23:04:12.295Z,61.03
2023-04-18T23:06:38.233Z,61.16
2023-04-18T23:09:02.399Z,61.31
2023-04-18T23:11:26.211Z,61.28
2023-04-18T23:13:50.114Z,61.49
2023-04-18T23:16:13.498Z,61.57
2023-04-18T23:18:37.020Z,62.10
2023-04-18T23:21:00.838Z,62.34
2023-04-18T23:23:24.621Z,62.88
2023-04-18T23:25:48.032Z,63.06
2023-04-18T23:28:13.010Z,63.30
2023-04-18T23:30:36.575Z,63.62
2023-04-18T23:33:09.437Z,63.70
2023-04-18T23:35:33.279Z,63.76
2023-04-18T23:37:56.830Z,63.84
2023-04-18T23:40:21.067Z,64.17
2023-04-18T23:42:44.887Z,64.22
2023-04-18T23:45:09.399Z,64.45
2023-04-18T23:47:33.122Z,64.51
2023-04-18T23:49:56.964Z,64.58
2023-04-18T23:52:23.025Z,64.85
2023-04-18T23:54:46.388Z,64.92
2023-04-18T23:57:13.302Z,65.10
2023-04-18T23:59:36.780Z,65.31
